LGKZ

Kozani National Airport

Airport
ICAO code
LGKZ
IATA Code
KZI
Summary
ICAO Region
EUR
ICAO Territory
Location

Kozani, Western Macedonia

Serving
Kozani
Elevation
2059 ft
Coordinates
40° 17' 20" N , 21° 50' 24" E
KCC
Metar
LGKZ 040950Z 00000KT 9999 SCT025 SCT070 13/05 Q1013

Kozani National Airport "Filippos" is located 2.5 nm southeast of the Greek city of Kozani.

Climatology

Humid subtropical climate (Köppen climate classification Cfa)

Runways

Designator Length Width Surface Rops
14/32 1822 30 ASP No/No

Airport map

Aerial View

SKYbrary Partners:

Safety knowledge contributed by: